createdAt,value
2018-06-10T05:22:27.944Z,95.26
2018-06-10T05:23:35.999Z,95.75
2018-06-10T05:24:44.414Z,95.36
2018-06-10T05:25:52.123Z,95.55
2018-06-10T05:27:01.051Z,95.26
2018-06-10T05:28:08.263Z,95.75
2018-06-10T05:29:16.324Z,95.36
2018-06-10T05:30:24.397Z,95.50
2018-06-10T05:31:32.511Z,95.41
2018-06-10T05:32:40.579Z,95.60
2018-06-10T05:33:48.599Z,95.41
2018-06-10T05:34:56.667Z,95.60
2018-06-10T05:36:04.727Z,95.21
2018-06-10T05:37:12.817Z,94.93
2018-06-10T05:38:20.889Z,94.93
2018-06-10T05:39:28.959Z,95.03
2018-06-10T05:40:37.013Z,95.07
2018-06-10T05:41:45.088Z,95.75
2018-06-10T05:42:53.161Z,95.65
2018-06-10T05:44:01.243Z,95.41
2018-06-10T05:45:09.334Z,94.83
2018-06-10T05:46:17.384Z,95.17
2018-06-10T05:47:25.436Z,95.45
2018-06-10T05:48:33.535Z,95.07
2018-06-10T05:49:41.585Z,95.26
2018-06-10T05:50:49.655Z,95.94
2018-06-10T05:51:57.720Z,95.36
2018-06-10T05:53:05.785Z,95.36
2018-06-10T05:54:13.851Z,95.55
2018-06-10T05:55:21.921Z,95.26
2018-06-10T05:56:29.974Z,95.17
2018-06-10T05:57:38.072Z,95.84
2018-06-10T05:58:46.130Z,95.65
2018-06-10T05:59:54.208Z,95.60
2018-06-10T06:01:02.269Z,95.89
2018-06-10T06:02:10.336Z,95.50
2018-06-10T06:03:18.472Z,95.12
2018-06-10T06:04:26.640Z,94.93
2018-06-10T06:05:34.530Z,94.93
2018-06-10T06:06:42.622Z,95.79
2018-06-10T06:07:50.673Z,95.79
2018-06-10T06:08:58.948Z,95.60
2018-06-10T06:10:06.819Z,94.93
2018-06-10T06:11:15.493Z,95.36
2018-06-10T06:12:22.958Z,95.84
2018-06-10T06:13:31.661Z,94.78
2018-06-10T06:14:39.668Z,94.78
2018-06-10T06:15:47.699Z,94.01
2018-06-10T06:16:55.685Z,94.30
2018-06-10T06:18:03.432Z,94.25
2018-06-10T06:19:11.386Z,93.87
2018-06-10T06:20:20.050Z,94.06
2018-06-10T06:21:28.101Z,94.15
2018-06-10T06:22:35.586Z,94.06
2018-06-10T06:23:43.667Z,93.87
2018-06-10T06:24:51.862Z,94.15
2018-06-10T06:25:59.831Z,94.01
2018-06-10T06:27:08.183Z,93.82
2018-06-10T06:28:15.955Z,94.30
2018-06-10T06:29:24.594Z,93.82
2018-06-10T06:30:32.999Z,93.91
2018-06-10T06:31:40.285Z,94.30
2018-06-10T06:32:48.351Z,94.20
2018-06-10T06:33:56.305Z,94.01
2018-06-10T06:35:04.467Z,93.43
2018-06-10T06:36:14.230Z,93.15
2018-06-10T06:37:20.515Z,93.53
2018-06-10T06:38:28.571Z,93.62
2018-06-10T06:39:36.932Z,92.76
2018-06-10T06:40:44.869Z,93.24
2018-06-10T06:41:52.808Z,93.43
2018-06-10T06:43:03.966Z,93.33
2018-06-10T06:44:09.508Z,92.66
2018-06-10T06:45:17.163Z,92.85
2018-06-10T06:46:25.045Z,92.90
2018-06-10T06:47:33.764Z,93.15
2018-06-10T06:48:41.219Z,93.29
2018-06-10T06:49:49.814Z,93.19
2018-06-10T06:50:57.599Z,93.09
2018-06-10T06:52:05.458Z,92.42
2018-06-10T06:53:13.519Z,93.00
2018-06-10T06:54:22.149Z,92.32
2018-06-10T06:55:29.657Z,91.17
2018-06-10T06:56:37.718Z,92.32
2018-06-10T06:57:45.792Z,92.37
2018-06-10T06:58:53.858Z,92.37
2018-06-10T07:00:01.948Z,91.41
2018-06-10T07:01:09.998Z,90.25
2018-06-10T07:02:18.063Z,91.45
2018-06-10T07:03:26.139Z,91.16
2018-06-10T07:04:34.202Z,90.58
2018-06-10T07:05:42.277Z,90.00
2018-06-10T07:06:51.374Z,90.72
2018-06-10T07:07:58.860Z,90.24
2018-06-10T07:09:06.744Z,89.95
2018-06-10T07:10:14.573Z,88.41
2018-06-10T07:11:22.858Z,88.07
2018-06-10T07:12:30.946Z,88.07
2018-06-10T07:13:38.786Z,88.26
2018-06-10T07:14:46.859Z,87.88
2018-06-10T07:15:55.172Z,87.40
2018-06-10T07:17:03.264Z,86.91
2018-06-10T07:18:11.309Z,86.28
2018-06-10T07:19:19.148Z,85.55
2018-06-10T07:20:27.539Z,84.82
2018-06-10T07:21:35.528Z,83.37
2018-06-10T07:22:43.596Z,83.75
2018-06-10T07:23:51.744Z,83.85
2018-06-10T07:24:59.552Z,83.56
2018-06-10T07:26:07.945Z,83.95
2018-06-10T07:27:16.025Z,83.85
2018-06-10T07:28:23.755Z,82.89
2018-06-10T07:29:31.898Z,82.02
2018-06-10T07:30:39.880Z,84.57
2018-06-10T07:31:47.968Z,81.23
2018-06-10T07:32:57.115Z,77.63
2018-06-10T07:34:04.125Z,76.12
2018-06-10T07:35:12.202Z,73.93
2018-06-10T07:36:20.556Z,73.22
2018-06-10T07:37:28.602Z,70.39
2018-06-10T07:38:36.419Z,66.72
2018-06-10T07:39:50.125Z,66.96
2018-06-10T07:40:56.196Z,66.40
2018-06-10T07:42:03.272Z,66.34
2018-06-10T07:43:11.401Z,61.99
2018-06-10T07:44:19.236Z,61.41
2018-06-10T07:45:27.339Z,61.54
2018-06-10T07:46:35.638Z,59.52
2018-06-10T07:47:43.717Z,60.20
2018-06-10T07:48:51.550Z,58.38
2018-06-10T07:49:59.647Z,59.64
2018-06-10T07:51:08.091Z,59.33
2018-06-10T07:52:16.073Z,59.06
2018-06-10T07:53:24.129Z,57.53
2018-06-10T07:54:32.154Z,57.82
2018-06-10T07:55:40.539Z,57.04
2018-06-10T07:56:48.536Z,56.07
2018-06-10T07:57:56.737Z,57.17
2018-06-10T07:59:04.597Z,55.93
2018-06-10T08:00:12.899Z,54.85
2018-06-10T08:01:20.793Z,55.34
2018-06-10T08:02:28.525Z,54.30
2018-06-10T08:03:36.899Z,55.47
2018-06-10T08:04:44.951Z,57.03
2018-06-10T08:05:52.988Z,53.64
2018-06-10T08:07:01.091Z,54.03
2018-06-10T08:08:09.007Z,52.86
2018-06-10T08:09:21.791Z,52.27
2018-06-10T08:10:25.341Z,53.22
2018-06-10T08:11:33.463Z,56.12
2018-06-10T08:12:41.726Z,59.28
2018-06-10T08:13:49.841Z,58.09
2018-06-10T08:14:57.437Z,57.67
2018-06-10T08:16:05.524Z,58.06
2018-06-10T08:17:13.619Z,58.15
2018-06-10T08:18:21.685Z,58.28
2018-06-10T08:19:29.769Z,58.48
2018-06-10T08:20:37.880Z,56.26
2018-06-10T08:21:45.952Z,59.02
2018-06-10T08:22:54.025Z,56.22
2018-06-10T08:24:02.131Z,54.75
2018-06-10T08:25:10.193Z,54.75
2018-06-10T08:26:18.273Z,53.09
2018-06-10T08:27:26.353Z,53.19
2018-06-10T08:28:34.887Z,51.56
2018-06-10T08:29:42.787Z,52.76
2018-06-10T08:30:51.178Z,51.29
2018-06-10T08:31:58.816Z,50.71
2018-06-10T08:33:06.821Z,53.83
2018-06-10T08:34:14.865Z,51.27
2018-06-10T08:35:23.193Z,52.25
2018-06-10T08:36:31.070Z,56.32
2018-06-10T08:37:39.565Z,55.29
2018-06-10T08:38:47.495Z,57.07
2018-06-10T08:39:55.304Z,57.24
2018-06-10T08:41:03.652Z,58.38
2018-06-10T08:42:11.759Z,57.40
2018-06-10T08:43:19.542Z,54.02
2018-06-10T08:44:27.622Z,56.20
2018-06-10T08:45:35.706Z,54.05
2018-06-10T08:46:44.089Z,55.71
2018-06-10T08:47:52.150Z,55.48
2018-06-10T08:49:00.440Z,54.50
2018-06-10T08:50:08.103Z,53.46
2018-06-10T08:51:16.126Z,55.61
2018-06-10T08:52:24.806Z,57.20
2018-06-10T08:53:32.305Z,55.05
2018-06-10T08:54:40.372Z,55.66
2018-06-10T08:55:50.286Z,54.88
2018-06-10T08:56:56.668Z,51.66
2018-06-10T08:58:04.612Z,52.64
2018-06-10T08:59:12.825Z,51.37
2018-06-10T09:00:20.809Z,52.44
2018-06-10T09:01:28.873Z,53.09
2018-06-10T09:02:36.990Z,54.56
2018-06-10T09:03:45.018Z,54.56
2018-06-10T09:04:53.132Z,53.88
2018-06-10T09:06:01.205Z,53.49
2018-06-10T09:07:09.286Z,53.52
2018-06-10T09:08:17.380Z,55.76
2018-06-10T09:09:25.438Z,52.47
2018-06-10T09:10:33.543Z,53.54
2018-06-10T09:11:41.635Z,53.25
2018-06-10T09:12:49.719Z,52.47
2018-06-10T09:13:57.805Z,51.00
2018-06-10T09:15:05.903Z,51.07
2018-06-10T09:16:13.975Z,53.91
2018-06-10T09:17:22.049Z,51.56
2018-06-10T09:18:30.137Z,52.54
2018-06-10T09:19:38.226Z,49.24
2018-06-10T09:20:46.322Z,49.92
2018-06-10T09:21:54.401Z,51.37
2018-06-10T09:23:02.474Z,54.66
2018-06-10T09:24:10.576Z,55.09
2018-06-10T09:25:18.649Z,56.85
2018-06-10T09:26:26.729Z,54.85
2018-06-10T09:27:34.796Z,58.25
2018-06-10T09:28:42.929Z,58.78
2018-06-10T09:29:50.986Z,60.92
2018-06-10T09:30:59.047Z,62.74
2018-06-10T09:32:07.150Z,64.20
2018-06-10T09:33:15.210Z,65.85
2018-06-10T09:34:23.310Z,63.29
2018-06-10T09:35:31.415Z,65.59
2018-06-10T09:36:39.483Z,63.55
2018-06-10T09:37:47.541Z,65.11
2018-06-10T09:38:55.634Z,64.20
2018-06-10T09:40:03.721Z,63.29
2018-06-10T09:41:11.795Z,63.39
2018-06-10T09:42:19.875Z,65.82
2018-06-10T09:43:27.964Z,65.53
2018-06-10T09:44:36.030Z,65.89
2018-06-10T09:45:44.162Z,67.83
2018-06-10T09:46:52.183Z,67.92
2018-06-10T09:48:00.250Z,68.02
2018-06-10T09:49:08.339Z,67.05
2018-06-10T09:50:16.425Z,68.70
2018-06-10T09:51:24.482Z,69.48
2018-06-10T09:52:32.582Z,68.31
2018-06-10T09:53:40.636Z,69.67
2018-06-10T09:54:48.738Z,68.89
2018-06-10T09:55:56.819Z,70.83
2018-06-10T09:57:04.875Z,69.51
2018-06-10T09:58:12.948Z,66.99
2018-06-10T09:59:21.048Z,67.34
2018-06-10T10:00:29.122Z,67.83
2018-06-10T10:01:37.186Z,65.79
2018-06-10T10:02:45.265Z,65.79
2018-06-10T10:03:53.346Z,63.72
2018-06-10T10:05:01.404Z,66.14
2018-06-10T10:06:09.495Z,69.44
2018-06-10T10:07:17.554Z,72.45
2018-06-10T10:08:25.641Z,69.15
2018-06-10T10:09:33.726Z,68.76
2018-06-10T10:10:41.800Z,67.44
2018-06-10T10:11:49.872Z,69.38
2018-06-10T10:12:57.944Z,68.21
2018-06-10T10:14:06.025Z,67.73
2018-06-10T10:15:14.107Z,69.86
2018-06-10T10:16:22.185Z,66.11
2018-06-10T10:17:30.223Z,65.33
2018-06-10T10:18:38.315Z,67.28
2018-06-10T10:19:47.664Z,66.17
2018-06-10T10:20:54.471Z,66.89
2018-06-10T10:22:02.551Z,65.24
2018-06-10T10:23:10.617Z,65.69
2018-06-10T10:24:18.703Z,67.54
2018-06-10T10:25:26.809Z,64.14
2018-06-10T10:26:34.823Z,66.37
2018-06-10T10:27:42.924Z,64.82
2018-06-10T10:28:50.986Z,69.67
2018-06-10T10:29:59.068Z,66.21
2018-06-10T10:31:07.148Z,67.86
2018-06-10T10:32:15.210Z,71.55
2018-06-10T10:33:23.294Z,65.53
2018-06-10T10:34:31.370Z,64.01
2018-06-10T10:35:39.440Z,68.28
2018-06-10T10:36:47.521Z,68.18
2018-06-10T10:37:55.587Z,66.44
2018-06-10T10:39:03.666Z,66.60
2018-06-10T10:40:11.728Z,66.66
2018-06-10T10:41:19.823Z,65.69
2018-06-10T10:42:27.902Z,66.86
2018-06-10T10:43:35.979Z,64.14
2018-06-10T10:44:44.039Z,68.35
2018-06-10T10:45:52.170Z,70.19
2018-06-10T10:47:00.213Z,71.55
2018-06-10T10:48:08.270Z,67.37
2018-06-10T10:49:16.339Z,69.54
2018-06-10T10:50:24.407Z,65.40
2018-06-10T10:51:32.491Z,65.89
2018-06-10T10:52:40.563Z,66.37
2018-06-10T10:53:48.639Z,68.90
2018-06-10T10:54:56.736Z,62.90
2018-06-10T10:56:04.812Z,61.64
2018-06-10T10:57:12.871Z,65.43
2018-06-10T10:58:20.944Z,62.77
2018-06-10T10:59:29.005Z,61.90
2018-06-10T11:00:37.106Z,64.17
2018-06-10T11:01:45.149Z,63.29
2018-06-10T11:02:53.261Z,64.26
2018-06-10T11:04:01.344Z,63.78
2018-06-10T11:05:09.397Z,66.02
2018-06-10T11:06:17.471Z,61.83
2018-06-10T11:07:25.549Z,62.74
2018-06-10T11:08:33.623Z,60.70
2018-06-10T11:09:41.699Z,61.44
2018-06-10T11:10:49.780Z,61.64
2018-06-10T11:11:57.852Z,61.64
2018-06-10T11:13:05.929Z,63.20
2018-06-10T11:14:14.001Z,60.67
2018-06-10T11:15:22.086Z,61.44
2018-06-10T11:16:30.165Z,63.68
2018-06-10T11:17:38.226Z,63.20
2018-06-10T11:18:46.323Z,63.87
2018-06-10T11:19:54.380Z,64.59
2018-06-10T11:21:02.467Z,60.24
2018-06-10T11:22:10.539Z,60.63
2018-06-10T11:23:18.620Z,59.56
2018-06-10T11:24:26.686Z,61.15
2018-06-10T11:25:34.737Z,63.16
2018-06-10T11:26:42.834Z,61.73
2018-06-10T11:27:50.922Z,62.67
2018-06-10T11:28:58.991Z,59.30
2018-06-10T11:30:07.071Z,58.91
2018-06-10T11:31:15.135Z,58.51
2018-06-10T11:32:23.225Z,58.32
2018-06-10T11:33:31.298Z,59.88
2018-06-10T11:34:39.377Z,56.86
2018-06-10T11:35:47.441Z,59.00
2018-06-10T11:36:55.530Z,61.66
2018-06-10T11:38:03.620Z,59.23
2018-06-10T11:39:11.683Z,58.29
2018-06-10T11:40:19.759Z,60.21
2018-06-10T11:41:27.820Z,59.89
2018-06-10T11:42:36.003Z,60.35
2018-06-10T11:43:43.982Z,60.51
2018-06-10T11:44:52.073Z,62.32
2018-06-10T11:46:00.138Z,64.26
2018-06-10T11:47:08.220Z,64.36
2018-06-10T11:48:16.291Z,63.88
2018-06-10T11:49:24.443Z,63.07
2018-06-10T11:50:32.457Z,65.50
2018-06-10T11:51:40.529Z,69.38
2018-06-10T11:52:48.617Z,71.19
2018-06-10T11:53:56.685Z,73.71
2018-06-10T11:55:04.739Z,74.35
2018-06-10T11:56:12.832Z,74.74
2018-06-10T11:57:20.911Z,75.71
2018-06-10T11:58:28.981Z,73.58
2018-06-10T11:59:37.051Z,78.91
2018-06-10T12:00:45.127Z,81.68
2018-06-10T12:01:53.260Z,84.93
2018-06-10T12:03:01.290Z,91.86
2018-06-10T12:04:09.340Z,91.67
2018-06-10T12:05:17.478Z,93.76
2018-06-10T12:06:25.492Z,96.41
2018-06-10T12:07:33.578Z,96.80
2018-06-10T12:08:41.650Z,95.26
2018-06-10T12:09:49.730Z,94.68
2018-06-10T12:10:57.821Z,93.44
2018-06-10T12:12:05.866Z,91.66
2018-06-10T12:13:14.039Z,89.69
2018-06-10T12:14:22.372Z,88.31
2018-06-10T12:15:30.090Z,88.40
2018-06-10T12:16:38.184Z,87.35
2018-06-10T12:17:46.286Z,86.00
2018-06-10T12:18:54.335Z,85.18
2018-06-10T12:20:02.388Z,85.57
2018-06-10T12:21:11.849Z,85.42
2018-06-10T12:22:18.529Z,84.85
2018-06-10T12:23:26.606Z,84.37
2018-06-10T12:24:34.642Z,84.56
2018-06-10T12:25:44.455Z,84.47
2018-06-10T12:26:51.139Z,84.18
2018-06-10T12:27:58.995Z,83.51
2018-06-10T12:29:07.588Z,82.74
2018-06-10T12:30:14.987Z,81.97
2018-06-10T12:31:23.282Z,81.59
2018-06-10T12:32:31.376Z,81.78
2018-06-10T12:33:39.225Z,81.01
2018-06-10T12:34:47.725Z,80.47
2018-06-10T12:35:55.692Z,79.61
2018-06-10T12:37:03.480Z,79.32
2018-06-10T12:38:11.497Z,79.32
2018-06-10T12:39:19.567Z,79.32
2018-06-10T12:40:28.163Z,78.94
2018-06-10T12:41:35.704Z,79.61
2018-06-10T12:42:43.780Z,79.80
2018-06-10T12:43:52.098Z,80.13
2018-06-10T12:45:00.191Z,79.84
2018-06-10T12:46:07.976Z,79.84
2018-06-10T12:47:17.134Z,79.84
2018-06-10T12:48:24.405Z,80.61
2018-06-10T12:49:32.197Z,81.09
2018-06-10T12:50:41.203Z,81.28
2018-06-10T12:51:48.653Z,80.17
2018-06-10T12:52:56.392Z,80.55
2018-06-10T12:54:04.468Z,80.55
2018-06-10T12:55:12.534Z,80.40
2018-06-10T12:56:20.602Z,80.21
2018-06-10T12:57:28.691Z,80.63
2018-06-10T12:58:36.766Z,80.44
2018-06-10T12:59:44.815Z,80.25
2018-06-10T13:00:52.903Z,81.63
2018-06-10T13:02:00.988Z,82.02
2018-06-10T13:03:09.041Z,0.00
2018-06-10T13:04:17.129Z,0.00
2018-06-10T13:05:25.211Z,0.00
2018-06-10T13:06:33.268Z,0.00
2018-06-10T13:07:41.348Z,0.00
2018-06-10T13:08:49.406Z,0.00
2018-06-10T13:09:57.476Z,0.00
2018-06-10T13:11:05.546Z,0.00
2018-06-10T13:12:13.616Z,0.00
2018-06-10T13:13:21.692Z,0.00
2018-06-10T13:14:29.780Z,0.00
2018-06-10T13:15:37.833Z,0.00
2018-06-10T13:16:45.895Z,0.00
2018-06-10T13:17:53.972Z,0.00
2018-06-10T13:19:02.043Z,0.00
2018-06-10T13:20:10.107Z,0.00
2018-06-10T13:21:18.190Z,0.00
2018-06-10T13:22:26.258Z,0.00
2018-06-10T13:23:34.325Z,0.00
2018-06-10T13:24:42.409Z,0.00
2018-06-10T13:25:50.472Z,0.00
2018-06-10T13:26:58.541Z,0.00
2018-06-10T13:28:06.610Z,0.00
2018-06-10T13:29:14.665Z,0.00
2018-06-10T13:30:22.766Z,0.00
2018-06-10T13:31:30.823Z,0.00
2018-06-10T13:32:38.891Z,0.00
2018-06-10T13:33:46.981Z,0.00
2018-06-10T13:34:55.014Z,0.00
2018-06-10T13:36:03.143Z,0.00
2018-06-10T13:37:11.226Z,0.00
2018-06-10T13:38:19.284Z,0.00
2018-06-10T13:39:27.347Z,0.00
2018-06-10T13:40:35.457Z,0.00
2018-06-10T13:41:43.834Z,0.00
2018-06-10T13:42:51.543Z,0.00
2018-06-10T13:43:59.608Z,0.00
2018-06-10T13:45:07.673Z,0.00
2018-06-10T13:46:15.791Z,0.00
2018-06-10T13:47:23.809Z,0.00
2018-06-10T13:48:31.902Z,0.00
2018-06-10T13:49:39.979Z,0.00
2018-06-10T13:50:48.034Z,0.00
2018-06-10T13:51:56.114Z,0.00
2018-06-10T13:53:04.183Z,0.00
2018-06-10T13:54:12.236Z,0.00
2018-06-10T13:55:20.344Z,0.00
2018-06-10T13:56:28.400Z,0.00
2018-06-10T13:57:36.474Z,0.00
2018-06-10T13:58:44.527Z,0.00
2018-06-10T13:59:52.606Z,0.00
2018-06-10T14:01:00.675Z,0.00
2018-06-10T14:02:08.762Z,0.00
2018-06-10T14:03:16.836Z,0.00
2018-06-10T14:04:24.869Z,0.00
2018-06-10T14:05:32.974Z,0.00
2018-06-10T14:06:41.099Z,0.00
2018-06-10T14:07:49.113Z,0.00
2018-06-10T14:08:57.192Z,0.00
2018-06-10T14:10:05.239Z,0.00
2018-06-10T14:11:13.333Z,0.00
2018-06-10T14:12:21.399Z,0.00
2018-06-10T14:13:29.464Z,0.00
2018-06-10T14:14:37.528Z,0.00
2018-06-10T14:15:45.615Z,0.00
2018-06-10T14:16:53.694Z,0.00
2018-06-10T14:18:01.747Z,93.48
2018-06-10T14:19:09.826Z,93.95
2018-06-10T14:20:17.900Z,92.89
2018-06-10T14:21:25.967Z,93.28
2018-06-10T14:22:34.039Z,92.99
2018-06-10T14:23:42.130Z,93.76
2018-06-10T14:24:50.193Z,93.23
2018-06-10T14:25:58.269Z,93.04
2018-06-10T14:27:06.331Z,92.94
2018-06-10T14:28:14.408Z,92.36
2018-06-10T14:29:22.475Z,92.56
2018-06-10T14:30:30.551Z,92.36
2018-06-10T14:31:38.613Z,92.60
2018-06-10T14:32:46.696Z,92.70
2018-06-10T14:33:54.749Z,92.70
2018-06-10T14:35:02.820Z,92.02
2018-06-10T14:36:10.947Z,92.32
2018-06-10T14:37:18.963Z,92.74
2018-06-10T14:38:27.041Z,92.55
2018-06-10T14:39:35.089Z,92.16
2018-06-10T14:40:43.202Z,92.50
2018-06-10T14:41:51.262Z,92.60
2018-06-10T14:42:59.334Z,92.50
2018-06-10T14:44:07.402Z,94.24
2018-06-10T14:45:15.467Z,94.29
2018-06-10T14:46:23.527Z,93.90
2018-06-10T14:47:31.621Z,94.38
2018-06-10T14:48:39.705Z,92.94
2018-06-10T14:49:47.773Z,93.80
2018-06-10T14:50:55.832Z,93.13
2018-06-10T14:52:05.940Z,93.23
2018-06-10T14:53:11.982Z,93.13
2018-06-10T14:55:37.220Z,93.23
2018-06-10T14:56:45.264Z,93.37
2018-06-10T14:57:53.348Z,0.00
2018-06-10T14:59:01.424Z,93.27
2018-06-10T15:00:09.511Z,92.89
2018-06-10T15:01:17.583Z,93.71
2018-06-10T15:02:25.631Z,94.67
2018-06-10T15:03:33.733Z,94.67
2018-06-10T15:04:41.796Z,94.48
2018-06-10T15:05:49.897Z,93.99
2018-06-10T15:06:57.940Z,95.35
2018-06-10T15:08:06.010Z,95.98
2018-06-10T15:09:14.076Z,95.78
2018-06-10T15:10:22.170Z,95.40
2018-06-10T15:11:30.243Z,95.30
2018-06-10T15:12:38.306Z,94.43
2018-06-10T15:13:46.376Z,95.64
2018-06-10T15:14:54.437Z,93.56
2018-06-10T15:16:02.527Z,94.72
2018-06-10T15:17:10.590Z,96.26
2018-06-10T15:18:18.675Z,94.92
2018-06-10T15:19:26.733Z,95.64
2018-06-10T15:20:34.810Z,95.30
2018-06-10T15:21:42.895Z,95.59
2018-06-10T15:22:50.968Z,95.50
2018-06-10T15:23:59.045Z,95.59
2018-06-10T15:25:07.123Z,95.78
2018-06-10T15:26:15.157Z,96.03
2018-06-10T15:27:23.253Z,95.93
2018-06-10T15:28:31.348Z,95.73
2018-06-10T15:29:39.430Z,94.77
2018-06-10T15:30:47.678Z,95.45
2018-06-10T15:31:57.459Z,95.93
2018-06-10T15:33:03.868Z,95.83
2018-06-10T15:34:12.071Z,95.15
2018-06-10T15:35:20.951Z,95.83
2018-06-10T15:36:27.844Z,92.60
2018-06-10T15:37:36.740Z,93.85
2018-06-10T15:38:43.982Z,96.61
2018-06-10T15:39:52.056Z,95.74
2018-06-10T15:41:00.125Z,96.80
2018-06-10T15:42:08.204Z,95.74
2018-06-10T15:43:16.269Z,96.12
2018-06-10T15:44:24.355Z,95.83
2018-06-10T15:45:32.411Z,96.70
2018-06-10T15:46:40.490Z,96.99
2018-06-10T15:47:48.569Z,96.41
2018-06-10T15:48:56.691Z,96.51
2018-06-10T15:50:04.747Z,96.22
2018-06-10T15:51:12.807Z,96.22
2018-06-10T15:52:20.853Z,95.35
2018-06-10T15:53:31.546Z,95.35
2018-06-10T15:54:39.631Z,95.93
2018-06-10T15:55:47.692Z,95.06
2018-06-10T15:56:55.878Z,95.74
2018-06-10T15:58:04.098Z,95.35
2018-06-10T15:59:11.980Z,95.54
2018-06-10T16:00:19.976Z,95.59
2018-06-10T16:01:28.069Z,95.20
2018-06-10T16:02:36.131Z,95.40
2018-06-10T16:03:44.212Z,95.68
2018-06-10T16:04:52.270Z,95.78
2018-06-10T16:06:00.372Z,95.50
2018-06-10T16:07:08.429Z,95.68
2018-06-10T16:08:16.496Z,95.98
2018-06-10T16:09:24.547Z,95.40
2018-06-10T16:10:32.639Z,95.50
2018-06-10T16:11:40.725Z,95.78
2018-06-10T16:12:48.777Z,95.68
2018-06-10T16:13:56.871Z,95.78
2018-06-10T16:15:04.905Z,96.46
2018-06-10T16:16:13.468Z,96.56
2018-06-10T16:17:21.081Z,94.53
2018-06-10T16:18:29.158Z,95.40
2018-06-10T16:19:37.220Z,95.64
2018-06-10T16:20:45.293Z,95.73
2018-06-10T16:21:53.369Z,95.83
2018-06-10T16:23:01.445Z,95.35
2018-06-10T16:24:09.515Z,96.56
2018-06-10T16:25:17.582Z,96.46
2018-06-10T16:26:25.679Z,95.78
2018-06-10T16:27:33.745Z,96.46
2018-06-10T16:28:41.811Z,96.46
2018-06-10T16:29:49.921Z,95.68
2018-06-10T16:30:57.962Z,95.64
2018-06-10T16:32:06.146Z,95.93
2018-06-10T16:33:14.102Z,95.73
2018-06-10T16:34:22.175Z,95.93
2018-06-10T16:35:30.285Z,96.22
2018-06-10T16:36:38.328Z,96.41
2018-06-10T16:37:46.403Z,96.46
2018-06-10T16:38:54.471Z,95.83
2018-06-10T16:40:02.538Z,95.40
2018-06-10T16:41:10.611Z,95.78
2018-06-10T16:42:18.696Z,96.36
2018-06-10T16:43:26.760Z,94.53
2018-06-10T16:44:34.813Z,94.72
2018-06-10T16:45:42.939Z,96.56
2018-06-10T16:46:50.985Z,95.40
2018-06-10T16:47:59.051Z,95.59
2018-06-10T16:49:07.179Z,95.50
2018-06-10T16:50:15.184Z,95.40
2018-06-10T16:51:23.277Z,96.56
2018-06-10T16:52:31.351Z,96.26
2018-06-10T16:53:39.413Z,95.68
2018-06-10T16:54:47.484Z,95.68
2018-06-10T16:55:55.604Z,95.40
2018-06-10T16:57:03.630Z,96.66
2018-06-10T16:58:11.708Z,96.46
2018-06-10T16:59:19.791Z,96.84
2018-06-10T17:00:27.845Z,96.26
2018-06-10T17:01:36.089Z,96.36
2018-06-10T17:02:44.009Z,94.92
2018-06-10T17:03:52.075Z,95.68
2018-06-10T17:05:00.130Z,95.30
2018-06-10T17:06:08.221Z,95.40
2018-06-10T17:07:20.347Z,95.98
2018-06-10T17:08:24.371Z,96.51
2018-06-10T17:09:32.446Z,96.12
2018-06-10T17:10:40.497Z,96.51
2018-06-10T17:11:48.571Z,95.54
2018-06-10T17:12:56.640Z,96.61
2018-06-10T17:14:04.693Z,96.89
2018-06-10T17:15:12.787Z,97.19
2018-06-10T17:16:20.903Z,97.19
2018-06-10T17:17:28.930Z,97.38
2018-06-10T17:21:10.321Z,96.66
2018-06-10T17:22:18.402Z,96.36
2018-06-10T17:23:26.459Z,97.14
2018-06-10T17:24:35.046Z,97.81
2018-06-10T17:25:42.614Z,96.36
2018-06-10T17:26:50.693Z,96.46
2018-06-10T17:27:58.759Z,97.09
2018-06-10T17:29:06.821Z,96.70
2018-06-10T17:30:14.895Z,96.80
2018-06-10T17:31:22.979Z,97.47
2018-06-10T17:32:31.048Z,96.08
2018-06-10T17:33:39.109Z,96.85
2018-06-10T17:34:47.195Z,96.75
2018-06-10T17:35:55.237Z,97.04
2018-06-10T17:37:03.328Z,97.91
2018-06-10T17:38:11.411Z,97.24
2018-06-10T17:39:19.462Z,96.94
2018-06-10T17:40:27.809Z,96.85
2018-06-10T17:41:35.619Z,96.94
2018-06-10T17:42:43.735Z,97.04
2018-06-10T17:43:51.759Z,96.75
2018-06-10T17:44:59.822Z,96.99
2018-06-10T17:46:07.880Z,96.85
2018-06-10T17:47:15.960Z,96.80
2018-06-10T17:48:24.047Z,96.80
2018-06-10T17:49:32.116Z,96.80
2018-06-10T17:50:40.182Z,96.51
2018-06-10T17:51:48.258Z,96.51
2018-06-10T17:52:56.321Z,96.42
2018-06-10T17:54:04.424Z,96.32
2018-06-10T17:55:12.462Z,97.57
2018-06-10T17:56:20.526Z,96.61
2018-06-10T17:57:28.609Z,96.80
2018-06-10T17:58:36.677Z,96.51
2018-06-10T17:59:44.738Z,96.42
2018-06-10T18:00:52.820Z,96.70
2018-06-10T18:02:00.920Z,95.94
2018-06-10T18:03:08.964Z,96.22
2018-06-10T18:04:17.033Z,96.32
2018-06-10T18:05:25.087Z,96.32
2018-06-10T18:06:33.170Z,96.89
2018-06-10T18:07:41.235Z,96.17
2018-06-10T18:08:49.300Z,96.56
2018-06-10T18:09:57.389Z,96.27
2018-06-10T18:11:05.458Z,96.27
2018-06-10T18:12:13.539Z,96.56
2018-06-10T18:13:21.589Z,96.46
2018-06-10T18:14:29.675Z,95.98
2018-06-10T18:15:37.747Z,96.46
2018-06-10T18:16:45.818Z,96.46
2018-06-10T18:17:53.878Z,96.37
2018-06-10T18:19:01.949Z,95.79
2018-06-10T18:20:10.039Z,96.22
2018-06-10T18:21:18.104Z,96.51
2018-06-10T18:22:26.161Z,96.42
2018-06-10T18:23:34.220Z,97.19
2018-06-10T18:24:42.300Z,96.51
2018-06-10T18:25:50.366Z,96.51
2018-06-10T18:26:58.437Z,96.12
2018-06-10T18:28:06.525Z,96.22
2018-06-10T18:29:14.577Z,96.70
2018-06-10T18:30:22.651Z,96.89
2018-06-10T18:31:30.714Z,96.89
2018-06-10T18:32:38.793Z,96.70
2018-06-10T18:33:46.872Z,96.85
2018-06-10T18:34:54.913Z,96.66
2018-06-10T18:36:03.013Z,96.27
2018-06-10T18:37:11.089Z,96.37
2018-06-10T18:38:19.135Z,96.47
2018-06-10T18:39:27.227Z,96.27
2018-06-10T18:40:35.279Z,96.27
2018-06-10T18:41:43.398Z,96.37
2018-06-10T18:42:51.436Z,96.08
2018-06-10T18:43:59.499Z,95.98
2018-06-10T18:45:07.570Z,95.79
2018-06-10T18:46:15.647Z,96.27
2018-06-10T18:47:23.721Z,96.08
2018-06-10T18:48:31.790Z,96.22
2018-06-10T18:49:39.849Z,96.03
2018-06-10T18:50:47.921Z,95.36
2018-06-10T18:51:56.258Z,96.03
2018-06-10T18:53:04.067Z,95.75
2018-06-10T18:54:12.142Z,96.03
2018-06-10T18:55:20.199Z,96.22
2018-06-10T18:56:28.273Z,96.22
2018-06-10T18:57:36.348Z,95.36
2018-06-10T18:58:44.417Z,95.36
2018-06-10T18:59:52.484Z,95.65
2018-06-10T19:01:00.548Z,96.08
2018-06-10T19:02:08.617Z,95.60
2018-06-10T19:03:16.714Z,96.08
2018-06-10T19:04:24.744Z,95.40
2018-06-10T19:05:32.844Z,95.98
2018-06-10T19:06:40.910Z,95.98
2018-06-10T19:07:48.977Z,95.79
2018-06-10T19:08:57.054Z,96.08
2018-06-10T19:10:05.103Z,96.03
2018-06-10T19:11:13.182Z,96.22
2018-06-10T19:12:21.250Z,95.94
2018-06-10T19:13:29.324Z,96.51
2018-06-10T19:14:37.380Z,96.22
2018-06-10T19:15:45.525Z,95.75
2018-06-10T19:16:53.549Z,96.13
2018-06-10T19:18:01.602Z,95.84
2018-06-10T19:19:09.663Z,96.27
2018-06-10T19:20:17.739Z,96.37
2018-06-10T19:21:25.807Z,96.47
2018-06-10T19:22:33.889Z,95.89
2018-06-10T19:23:41.951Z,96.56
2018-06-10T19:24:50.018Z,95.70
2018-06-10T19:25:58.087Z,95.98
2018-06-10T19:27:06.180Z,96.47
2018-06-10T19:28:14.213Z,96.94
2018-06-10T19:29:22.311Z,96.37
2018-06-10T19:30:30.367Z,96.37
2018-06-10T19:31:38.425Z,96.51
2018-06-10T19:32:46.552Z,95.94
2018-06-10T19:33:54.616Z,95.94
2018-06-10T19:35:02.626Z,96.61
2018-06-10T19:36:10.703Z,96.13
2018-06-10T19:37:18.787Z,96.32
2018-06-10T19:38:26.842Z,96.51
2018-06-10T19:39:34.892Z,96.42
2018-06-10T19:40:42.971Z,96.61
2018-06-10T19:41:51.028Z,95.84
2018-06-10T19:42:59.121Z,96.61
2018-06-10T19:44:07.170Z,96.61
2018-06-10T19:45:15.227Z,96.61
2018-06-10T19:46:23.320Z,96.51
2018-06-10T19:47:31.386Z,96.37
2018-06-10T19:48:39.452Z,96.85
2018-06-10T19:49:47.518Z,96.37
2018-06-10T19:50:55.596Z,96.66
2018-06-10T19:52:03.687Z,96.27
2018-06-10T19:53:11.732Z,96.37
2018-06-10T19:54:19.797Z,96.56
2018-06-10T19:55:27.866Z,96.56
2018-06-10T19:56:35.936Z,96.66
2018-06-10T19:57:44.011Z,96.66
2018-06-10T19:58:52.077Z,96.08
2018-06-10T20:00:00.133Z,96.27
2018-06-10T20:01:08.206Z,96.37
2018-06-10T20:02:16.268Z,95.79
2018-06-10T20:03:24.331Z,95.89
2018-06-10T20:04:32.399Z,95.79